sensor_id;sensor_type;location;lat;lon;timestamp;P1;durP1;ratioP1;P2;durP2;ratioP2
78406;SDS011;67692;51.074;-1.790;2023-07-13T00:00:30;4.40;;;1.58;;
78406;SDS011;67692;51.074;-1.790;2023-07-13T00:02:57;3.60;;;1.55;;
78406;SDS011;67692;51.074;-1.790;2023-07-13T00:05:24;8.63;;;1.90;;
78406;SDS011;67692;51.074;-1.790;2023-07-13T00:07:52;5.10;;;1.90;;
78406;SDS011;67692;51.074;-1.790;2023-07-13T00:10:19;5.10;;;1.60;;
78406;SDS011;67692;51.074;-1.790;2023-07-13T00:12:46;6.13;;;1.50;;
78406;SDS011;67692;51.074;-1.790;2023-07-13T00:15:16;5.75;;;1.90;;
78406;SDS011;67692;51.074;-1.790;2023-07-13T00:17:47;5.85;;;2.60;;
78406;SDS011;67692;51.074;-1.790;2023-07-13T00:20:14;5.18;;;1.70;;
78406;SDS011;67692;51.074;-1.790;2023-07-13T00:22:41;5.90;;;1.88;;
78406;SDS011;67692;51.074;-1.790;2023-07-13T00:25:08;7.60;;;1.83;;
78406;SDS011;67692;51.074;-1.790;2023-07-13T00:27:36;5.78;;;2.10;;
78406;SDS011;67692;51.074;-1.790;2023-07-13T00:30:03;7.07;;;1.90;;
78406;SDS011;67692;51.074;-1.790;2023-07-13T00:32:32;6.53;;;1.80;;
78406;SDS011;67692;51.074;-1.790;2023-07-13T00:34:59;5.28;;;1.98;;
78406;SDS011;67692;51.074;-1.790;2023-07-13T00:37:25;8.27;;;1.70;;
78406;SDS011;67692;51.074;-1.790;2023-07-13T00:39:52;9.00;;;1.65;;
78406;SDS011;67692;51.074;-1.790;2023-07-13T00:42:19;6.72;;;1.60;;
78406;SDS011;67692;51.074;-1.790;2023-07-13T00:45:02;5.80;;;2.05;;
78406;SDS011;67692;51.074;-1.790;2023-07-13T00:47:32;7.40;;;1.63;;
78406;SDS011;67692;51.074;-1.790;2023-07-13T00:49:59;6.45;;;1.63;;
78406;SDS011;67692;51.074;-1.790;2023-07-13T00:52:26;7.50;;;1.95;;
78406;SDS011;67692;51.074;-1.790;2023-07-13T00:54:53;6.32;;;1.70;;
78406;SDS011;67692;51.074;-1.790;2023-07-13T00:57:21;5.85;;;1.80;;
78406;SDS011;67692;51.074;-1.790;2023-07-13T00:59:48;7.18;;;1.83;;
78406;SDS011;67692;51.074;-1.790;2023-07-13T01:02:18;6.07;;;1.80;;
78406;SDS011;67692;51.074;-1.790;2023-07-13T01:04:48;7.57;;;2.20;;
78406;SDS011;67692;51.074;-1.790;2023-07-13T01:07:15;5.55;;;1.50;;
78406;SDS011;67692;51.074;-1.790;2023-07-13T01:09:41;9.48;;;1.85;;
78406;SDS011;67692;51.074;-1.790;2023-07-13T01:12:10;6.32;;;2.05;;
78406;SDS011;67692;51.074;-1.790;2023-07-13T01:14:37;6.00;;;1.60;;
78406;SDS011;67692;51.074;-1.790;2023-07-13T01:17:04;5.85;;;1.60;;
78406;SDS011;67692;51.074;-1.790;2023-07-13T01:19:32;5.65;;;1.40;;
78406;SDS011;67692;51.074;-1.790;2023-07-13T01:22:04;6.40;;;1.50;;
78406;SDS011;67692;51.074;-1.790;2023-07-13T01:24:33;6.72;;;1.55;;
78406;SDS011;67692;51.074;-1.790;2023-07-13T01:27:01;6.25;;;1.52;;
78406;SDS011;67692;51.074;-1.790;2023-07-13T01:29:28;4.85;;;1.52;;
78406;SDS011;67692;51.074;-1.790;2023-07-13T01:31:55;6.10;;;1.45;;
78406;SDS011;67692;51.074;-1.790;2023-07-13T01:34:21;3.75;;;1.40;;
78406;SDS011;67692;51.074;-1.790;2023-07-13T01:36:48;9.27;;;1.73;;
78406;SDS011;67692;51.074;-1.790;2023-07-13T01:39:16;4.25;;;1.50;;
78406;SDS011;67692;51.074;-1.790;2023-07-13T01:41:43;8.70;;;1.45;;
78406;SDS011;67692;51.074;-1.790;2023-07-13T01:44:09;5.03;;;1.55;;
78406;SDS011;67692;51.074;-1.790;2023-07-13T01:46:36;3.53;;;1.33;;
78406;SDS011;67692;51.074;-1.790;2023-07-13T01:49:02;4.57;;;1.50;;
78406;SDS011;67692;51.074;-1.790;2023-07-13T01:51:29;4.18;;;1.50;;
78406;SDS011;67692;51.074;-1.790;2023-07-13T01:53:56;5.93;;;1.75;;
78406;SDS011;67692;51.074;-1.790;2023-07-13T01:56:24;4.50;;;1.50;;
78406;SDS011;67692;51.074;-1.790;2023-07-13T01:58:51;4.57;;;1.45;;
78406;SDS011;67692;51.074;-1.790;2023-07-13T02:01:18;4.03;;;1.40;;
78406;SDS011;67692;51.074;-1.790;2023-07-13T02:03:44;5.57;;;1.60;;
78406;SDS011;67692;51.074;-1.790;2023-07-13T02:06:11;4.30;;;1.77;;
78406;SDS011;67692;51.074;-1.790;2023-07-13T02:08:40;3.45;;;1.23;;
78406;SDS011;67692;51.074;-1.790;2023-07-13T02:11:07;6.82;;;1.75;;
78406;SDS011;67692;51.074;-1.790;2023-07-13T02:13:35;5.10;;;1.55;;
78406;SDS011;67692;51.074;-1.790;2023-07-13T02:16:02;7.82;;;1.70;;
78406;SDS011;67692;51.074;-1.790;2023-07-13T02:18:29;3.92;;;1.42;;
78406;SDS011;67692;51.074;-1.790;2023-07-13T02:20:55;5.68;;;1.85;;
78406;SDS011;67692;51.074;-1.790;2023-07-13T02:23:22;3.88;;;1.70;;
78406;SDS011;67692;51.074;-1.790;2023-07-13T02:25:49;6.90;;;1.52;;
78406;SDS011;67692;51.074;-1.790;2023-07-13T02:28:15;6.53;;;1.88;;
78406;SDS011;67692;51.074;-1.790;2023-07-13T02:30:43;5.35;;;1.38;;
78406;SDS011;67692;51.074;-1.790;2023-07-13T02:33:10;3.80;;;1.50;;
78406;SDS011;67692;51.074;-1.790;2023-07-13T02:35:36;4.78;;;1.33;;
78406;SDS011;67692;51.074;-1.790;2023-07-13T02:38:03;4.65;;;1.58;;
78406;SDS011;67692;51.074;-1.790;2023-07-13T02:40:30;5.50;;;1.40;;
78406;SDS011;67692;51.074;-1.790;2023-07-13T02:42:58;13.35;;;1.85;;
78406;SDS011;67692;51.074;-1.790;2023-07-13T02:45:24;6.78;;;1.80;;
78406;SDS011;67692;51.074;-1.790;2023-07-13T02:47:53;7.13;;;2.58;;
78406;SDS011;67692;51.074;-1.790;2023-07-13T02:50:20;4.50;;;1.58;;
78406;SDS011;67692;51.074;-1.790;2023-07-13T02:52:47;5.75;;;1.48;;
78406;SDS011;67692;51.074;-1.790;2023-07-13T02:55:14;3.28;;;1.83;;
78406;SDS011;67692;51.074;-1.790;2023-07-13T02:57:40;7.13;;;1.83;;
78406;SDS011;67692;51.074;-1.790;2023-07-13T03:00:07;7.68;;;1.98;;
78406;SDS011;67692;51.074;-1.790;2023-07-13T03:02:35;4.50;;;1.60;;
78406;SDS011;67692;51.074;-1.790;2023-07-13T03:05:03;6.43;;;1.70;;
78406;SDS011;67692;51.074;-1.790;2023-07-13T03:07:30;11.15;;;1.98;;
78406;SDS011;67692;51.074;-1.790;2023-07-13T03:09:58;5.43;;;1.70;;
78406;SDS011;67692;51.074;-1.790;2023-07-13T03:12:25;6.50;;;1.50;;
78406;SDS011;67692;51.074;-1.790;2023-07-13T03:14:52;4.65;;;1.40;;
78406;SDS011;67692;51.074;-1.790;2023-07-13T03:17:18;4.38;;;1.77;;
78406;SDS011;67692;51.074;-1.790;2023-07-13T03:19:45;5.63;;;1.60;;
78406;SDS011;67692;51.074;-1.790;2023-07-13T03:22:16;3.72;;;1.30;;
78406;SDS011;67692;51.074;-1.790;2023-07-13T03:24:42;2.90;;;1.23;;
78406;SDS011;67692;51.074;-1.790;2023-07-13T03:27:09;7.18;;;1.48;;
78406;SDS011;67692;51.074;-1.790;2023-07-13T03:29:35;3.67;;;1.33;;
78406;SDS011;67692;51.074;-1.790;2023-07-13T03:32:02;5.85;;;1.48;;
78406;SDS011;67692;51.074;-1.790;2023-07-13T03:34:30;4.15;;;1.42;;
78406;SDS011;67692;51.074;-1.790;2023-07-13T03:36:57;4.95;;;1.83;;
78406;SDS011;67692;51.074;-1.790;2023-07-13T03:39:25;5.50;;;1.73;;
78406;SDS011;67692;51.074;-1.790;2023-07-13T03:41:53;4.70;;;1.70;;
78406;SDS011;67692;51.074;-1.790;2023-07-13T03:44:19;5.82;;;1.52;;
78406;SDS011;67692;51.074;-1.790;2023-07-13T03:46:46;8.48;;;1.73;;
78406;SDS011;67692;51.074;-1.790;2023-07-13T03:49:13;5.80;;;1.80;;
78406;SDS011;67692;51.074;-1.790;2023-07-13T03:51:39;4.82;;;1.70;;
78406;SDS011;67692;51.074;-1.790;2023-07-13T03:54:06;4.90;;;2.00;;
78406;SDS011;67692;51.074;-1.790;2023-07-13T03:56:34;5.78;;;1.83;;
78406;SDS011;67692;51.074;-1.790;2023-07-13T03:59:01;4.63;;;1.60;;
78406;SDS011;67692;51.074;-1.790;2023-07-13T04:01:28;5.75;;;1.60;;
78406;SDS011;67692;51.074;-1.790;2023-07-13T04:03:54;3.25;;;1.30;;
78406;SDS011;67692;51.074;-1.790;2023-07-13T04:06:22;5.75;;;1.33;;
78406;SDS011;67692;51.074;-1.790;2023-07-13T04:08:55;6.13;;;1.75;;
78406;SDS011;67692;51.074;-1.790;2023-07-13T04:11:24;5.70;;;1.73;;
78406;SDS011;67692;51.074;-1.790;2023-07-13T04:13:53;5.30;;;1.30;;
78406;SDS011;67692;51.074;-1.790;2023-07-13T04:16:20;7.90;;;1.73;;
78406;SDS011;67692;51.074;-1.790;2023-07-13T04:18:47;4.55;;;1.55;;
78406;SDS011;67692;51.074;-1.790;2023-07-13T04:21:14;4.88;;;1.70;;
78406;SDS011;67692;51.074;-1.790;2023-07-13T04:23:42;4.72;;;1.90;;
78406;SDS011;67692;51.074;-1.790;2023-07-13T04:26:09;9.57;;;2.00;;
78406;SDS011;67692;51.074;-1.790;2023-07-13T04:28:35;7.75;;;1.80;;
78406;SDS011;67692;51.074;-1.790;2023-07-13T04:31:03;5.85;;;1.58;;
78406;SDS011;67692;51.074;-1.790;2023-07-13T04:33:30;6.18;;;1.40;;
78406;SDS011;67692;51.074;-1.790;2023-07-13T04:35:57;5.35;;;1.70;;
78406;SDS011;67692;51.074;-1.790;2023-07-13T04:38:25;4.80;;;1.60;;
78406;SDS011;67692;51.074;-1.790;2023-07-13T04:40:54;2.90;;;1.27;;
78406;SDS011;67692;51.074;-1.790;2023-07-13T04:43:21;5.63;;;1.50;;
78406;SDS011;67692;51.074;-1.790;2023-07-13T04:45:48;6.72;;;1.92;;
78406;SDS011;67692;51.074;-1.790;2023-07-13T04:48:16;6.82;;;1.67;;
78406;SDS011;67692;51.074;-1.790;2023-07-13T04:50:42;9.07;;;1.70;;
78406;SDS011;67692;51.074;-1.790;2023-07-13T04:53:09;7.70;;;1.90;;
78406;SDS011;67692;51.074;-1.790;2023-07-13T04:55:36;7.10;;;2.05;;
78406;SDS011;67692;51.074;-1.790;2023-07-13T04:58:03;3.63;;;1.23;;
78406;SDS011;67692;51.074;-1.790;2023-07-13T05:00:30;4.50;;;1.40;;
78406;SDS011;67692;51.074;-1.790;2023-07-13T05:02:57;5.55;;;1.70;;
78406;SDS011;67692;51.074;-1.790;2023-07-13T05:05:26;3.85;;;1.50;;
78406;SDS011;67692;51.074;-1.790;2023-07-13T05:07:53;3.72;;;1.30;;
78406;SDS011;67692;51.074;-1.790;2023-07-13T05:10:20;5.47;;;1.48;;
78406;SDS011;67692;51.074;-1.790;2023-07-13T05:12:47;7.65;;;1.67;;
78406;SDS011;67692;51.074;-1.790;2023-07-13T05:15:14;4.53;;;1.27;;
78406;SDS011;67692;51.074;-1.790;2023-07-13T05:17:41;5.38;;;1.75;;
78406;SDS011;67692;51.074;-1.790;2023-07-13T05:20:08;6.57;;;1.70;;
78406;SDS011;67692;51.074;-1.790;2023-07-13T05:22:37;6.75;;;1.58;;
78406;SDS011;67692;51.074;-1.790;2023-07-13T05:25:04;4.63;;;1.58;;
78406;SDS011;67692;51.074;-1.790;2023-07-13T05:27:32;7.80;;;2.15;;
78406;SDS011;67692;51.074;-1.790;2023-07-13T05:29:59;6.45;;;1.45;;
78406;SDS011;67692;51.074;-1.790;2023-07-13T05:32:26;6.07;;;1.58;;
78406;SDS011;67692;51.074;-1.790;2023-07-13T05:34:53;4.60;;;1.40;;
78406;SDS011;67692;51.074;-1.790;2023-07-13T05:37:19;4.95;;;2.03;;
78406;SDS011;67692;51.074;-1.790;2023-07-13T05:39:48;4.07;;;1.33;;
78406;SDS011;67692;51.074;-1.790;2023-07-13T05:42:15;7.25;;;1.60;;
78406;SDS011;67692;51.074;-1.790;2023-07-13T05:44:41;6.35;;;1.73;;
78406;SDS011;67692;51.074;-1.790;2023-07-13T05:47:08;6.50;;;1.73;;
78406;SDS011;67692;51.074;-1.790;2023-07-13T05:49:35;6.20;;;1.38;;
78406;SDS011;67692;51.074;-1.790;2023-07-13T05:52:01;5.57;;;1.77;;
78406;SDS011;67692;51.074;-1.790;2023-07-13T05:54:28;5.70;;;1.40;;
78406;SDS011;67692;51.074;-1.790;2023-07-13T05:56:56;5.28;;;1.77;;
78406;SDS011;67692;51.074;-1.790;2023-07-13T05:59:23;5.18;;;1.60;;
78406;SDS011;67692;51.074;-1.790;2023-07-13T06:01:50;6.93;;;1.40;;
78406;SDS011;67692;51.074;-1.790;2023-07-13T06:04:17;4.47;;;1.42;;
78406;SDS011;67692;51.074;-1.790;2023-07-13T06:06:44;5.10;;;1.60;;
78406;SDS011;67692;51.074;-1.790;2023-07-13T06:09:11;8.18;;;1.70;;
78406;SDS011;67692;51.074;-1.790;2023-07-13T06:11:37;6.32;;;1.42;;
78406;SDS011;67692;51.074;-1.790;2023-07-13T06:14:05;5.82;;;1.80;;
78406;SDS011;67692;51.074;-1.790;2023-07-13T06:16:32;4.47;;;1.50;;
78406;SDS011;67692;51.074;-1.790;2023-07-13T06:18:59;5.13;;;1.70;;
78406;SDS011;67692;51.074;-1.790;2023-07-13T06:21:26;7.60;;;1.77;;
78406;SDS011;67692;51.074;-1.790;2023-07-13T06:23:52;7.43;;;1.50;;
78406;SDS011;67692;51.074;-1.790;2023-07-13T06:26:20;4.07;;;1.73;;
78406;SDS011;67692;51.074;-1.790;2023-07-13T06:28:47;7.03;;;1.73;;
78406;SDS011;67692;51.074;-1.790;2023-07-13T06:31:16;4.30;;;1.33;;
78406;SDS011;67692;51.074;-1.790;2023-07-13T06:33:43;6.53;;;1.40;;
78406;SDS011;67692;51.074;-1.790;2023-07-13T06:36:10;6.97;;;1.58;;
78406;SDS011;67692;51.074;-1.790;2023-07-13T06:38:37;3.97;;;1.27;;
78406;SDS011;67692;51.074;-1.790;2023-07-13T06:41:05;5.20;;;1.40;;
78406;SDS011;67692;51.074;-1.790;2023-07-13T06:43:33;7.10;;;1.73;;
78406;SDS011;67692;51.074;-1.790;2023-07-13T06:45:59;4.85;;;1.45;;
78406;SDS011;67692;51.074;-1.790;2023-07-13T06:48:27;2.65;;;1.30;;
78406;SDS011;67692;51.074;-1.790;2023-07-13T06:50:54;3.72;;;1.20;;
78406;SDS011;67692;51.074;-1.790;2023-07-13T06:53:21;6.03;;;1.67;;
78406;SDS011;67692;51.074;-1.790;2023-07-13T06:55:48;4.07;;;1.35;;
78406;SDS011;67692;51.074;-1.790;2023-07-13T06:58:16;4.80;;;1.85;;
78406;SDS011;67692;51.074;-1.790;2023-07-13T07:00:43;3.80;;;1.20;;
78406;SDS011;67692;51.074;-1.790;2023-07-13T07:03:10;6.07;;;1.35;;
78406;SDS011;67692;51.074;-1.790;2023-07-13T07:05:38;4.90;;;1.33;;
78406;SDS011;67692;51.074;-1.790;2023-07-13T07:08:05;8.80;;;1.67;;
78406;SDS011;67692;51.074;-1.790;2023-07-13T07:10:31;4.72;;;1.30;;
78406;SDS011;67692;51.074;-1.790;2023-07-13T07:12:59;8.60;;;1.40;;
78406;SDS011;67692;51.074;-1.790;2023-07-13T07:15:26;6.32;;;1.30;;
78406;SDS011;67692;51.074;-1.790;2023-07-13T07:17:53;2.88;;;1.23;;
78406;SDS011;67692;51.074;-1.790;2023-07-13T07:20:19;4.32;;;1.23;;
78406;SDS011;67692;51.074;-1.790;2023-07-13T07:22:47;4.05;;;1.50;;
78406;SDS011;67692;51.074;-1.790;2023-07-13T07:25:15;5.82;;;1.35;;
78406;SDS011;67692;51.074;-1.790;2023-07-13T07:27:41;3.17;;;1.40;;
78406;SDS011;67692;51.074;-1.790;2023-07-13T07:30:08;6.68;;;1.52;;
78406;SDS011;67692;51.074;-1.790;2023-07-13T07:32:36;5.03;;;1.40;;
78406;SDS011;67692;51.074;-1.790;2023-07-13T07:35:03;7.28;;;2.05;;
78406;SDS011;67692;51.074;-1.790;2023-07-13T07:37:30;8.52;;;1.60;;
78406;SDS011;67692;51.074;-1.790;2023-07-13T07:39:58;9.30;;;1.52;;
78406;SDS011;67692;51.074;-1.790;2023-07-13T07:42:25;4.78;;;1.50;;
78406;SDS011;67692;51.074;-1.790;2023-07-13T07:44:52;5.60;;;1.75;;
78406;SDS011;67692;51.074;-1.790;2023-07-13T07:47:18;7.28;;;1.60;;
78406;SDS011;67692;51.074;-1.790;2023-07-13T07:49:45;6.85;;;1.73;;
78406;SDS011;67692;51.074;-1.790;2023-07-13T07:52:11;3.67;;;1.30;;
78406;SDS011;67692;51.074;-1.790;2023-07-13T07:54:38;5.43;;;1.40;;
78406;SDS011;67692;51.074;-1.790;2023-07-13T07:57:06;3.65;;;1.60;;
78406;SDS011;67692;51.074;-1.790;2023-07-13T07:59:35;6.05;;;1.73;;
78406;SDS011;67692;51.074;-1.790;2023-07-13T08:02:02;5.05;;;1.67;;
78406;SDS011;67692;51.074;-1.790;2023-07-13T08:04:29;5.15;;;1.30;;
78406;SDS011;67692;51.074;-1.790;2023-07-13T08:06:56;4.22;;;1.50;;
78406;SDS011;67692;51.074;-1.790;2023-07-13T08:09:23;6.65;;;1.55;;
78406;SDS011;67692;51.074;-1.790;2023-07-13T08:11:49;5.47;;;1.55;;
78406;SDS011;67692;51.074;-1.790;2023-07-13T08:14:18;4.97;;;1.25;;
78406;SDS011;67692;51.074;-1.790;2023-07-13T08:16:45;6.82;;;1.50;;
78406;SDS011;67692;51.074;-1.790;2023-07-13T08:19:12;5.90;;;1.48;;
78406;SDS011;67692;51.074;-1.790;2023-07-13T08:21:38;3.00;;;1.40;;
78406;SDS011;67692;51.074;-1.790;2023-07-13T08:24:05;4.85;;;1.40;;
78406;SDS011;67692;51.074;-1.790;2023-07-13T08:26:32;7.72;;;2.13;;
78406;SDS011;67692;51.074;-1.790;2023-07-13T08:28:59;4.72;;;1.80;;
78406;SDS011;67692;51.074;-1.790;2023-07-13T08:31:27;4.80;;;1.40;;
78406;SDS011;67692;51.074;-1.790;2023-07-13T08:33:53;8.00;;;2.15;;
78406;SDS011;67692;51.074;-1.790;2023-07-13T08:36:20;3.63;;;1.40;;
78406;SDS011;67692;51.074;-1.790;2023-07-13T08:38:47;6.53;;;1.55;;
78406;SDS011;67692;51.074;-1.790;2023-07-13T08:41:14;5.05;;;1.15;;
78406;SDS011;67692;51.074;-1.790;2023-07-13T08:43:44;4.47;;;1.10;;
78406;SDS011;67692;51.074;-1.790;2023-07-13T08:46:15;3.35;;;1.23;;
78406;SDS011;67692;51.074;-1.790;2023-07-13T08:48:47;3.33;;;1.20;;
78406;SDS011;67692;51.074;-1.790;2023-07-13T08:51:23;6.43;;;1.77;;
78406;SDS011;67692;51.074;-1.790;2023-07-13T08:53:55;7.28;;;1.50;;
78406;SDS011;67692;51.074;-1.790;2023-07-13T08:56:27;3.15;;;1.20;;
78406;SDS011;67692;51.074;-1.790;2023-07-13T08:58:56;6.53;;;1.05;;
78406;SDS011;67692;51.074;-1.790;2023-07-13T09:01:25;4.38;;;1.42;;
78406;SDS011;67692;51.074;-1.790;2023-07-13T09:04:02;6.93;;;1.58;;
78406;SDS011;67692;51.074;-1.790;2023-07-13T09:06:39;2.90;;;1.10;;
78406;SDS011;67692;51.074;-1.790;2023-07-13T09:09:16;4.28;;;1.00;;
78406;SDS011;67692;51.074;-1.790;2023-07-13T09:11:50;4.50;;;1.45;;
78406;SDS011;67692;51.074;-1.790;2023-07-13T09:14:37;4.57;;;1.20;;
78406;SDS011;67692;51.074;-1.790;2023-07-13T09:17:11;5.40;;;1.10;;
78406;SDS011;67692;51.074;-1.790;2023-07-13T09:19:44;3.03;;;1.05;;
78406;SDS011;67692;51.074;-1.790;2023-07-13T09:22:15;2.78;;;1.10;;
78406;SDS011;67692;51.074;-1.790;2023-07-13T09:27:33;7.90;;;1.10;;
78406;SDS011;67692;51.074;-1.790;2023-07-13T09:30:15;4.00;;;1.10;;
78406;SDS011;67692;51.074;-1.790;2023-07-13T09:32:51;2.08;;;1.00;;
78406;SDS011;67692;51.074;-1.790;2023-07-13T09:35:22;3.20;;;1.00;;
78406;SDS011;67692;51.074;-1.790;2023-07-13T09:37:56;2.55;;;1.20;;
78406;SDS011;67692;51.074;-1.790;2023-07-13T09:40:25;2.78;;;1.10;;
78406;SDS011;67692;51.074;-1.790;2023-07-13T09:42:59;3.95;;;1.15;;
78406;SDS011;67692;51.074;-1.790;2023-07-13T09:45:27;3.13;;;1.10;;
78406;SDS011;67692;51.074;-1.790;2023-07-13T09:48:04;3.58;;;1.95;;
78406;SDS011;67692;51.074;-1.790;2023-07-13T09:50:34;4.22;;;1.00;;
78406;SDS011;67692;51.074;-1.790;2023-07-13T09:53:02;3.60;;;1.00;;
78406;SDS011;67692;51.074;-1.790;2023-07-13T09:55:30;3.65;;;0.88;;
78406;SDS011;67692;51.074;-1.790;2023-07-13T09:58:02;2.30;;;1.15;;
78406;SDS011;67692;51.074;-1.790;2023-07-13T10:00:31;2.78;;;0.95;;
78406;SDS011;67692;51.074;-1.790;2023-07-13T10:02:58;2.35;;;1.00;;
78406;SDS011;67692;51.074;-1.790;2023-07-13T10:05:39;4.28;;;1.10;;
78406;SDS011;67692;51.074;-1.790;2023-07-13T10:08:15;5.55;;;1.00;;
78406;SDS011;67692;51.074;-1.790;2023-07-13T10:10:44;4.95;;;1.00;;
78406;SDS011;67692;51.074;-1.790;2023-07-13T10:13:21;4.78;;;1.00;;
78406;SDS011;67692;51.074;-1.790;2023-07-13T10:15:53;3.00;;;0.98;;
78406;SDS011;67692;51.074;-1.790;2023-07-13T10:18:21;3.03;;;1.05;;
78406;SDS011;67692;51.074;-1.790;2023-07-13T10:20:52;3.28;;;1.00;;
78406;SDS011;67692;51.074;-1.790;2023-07-13T10:23:25;1.98;;;1.00;;
78406;SDS011;67692;51.074;-1.790;2023-07-13T10:25:57;4.57;;;0.90;;
78406;SDS011;67692;51.074;-1.790;2023-07-13T10:28:27;3.15;;;1.00;;
78406;SDS011;67692;51.074;-1.790;2023-07-13T10:30:58;3.13;;;1.10;;
78406;SDS011;67692;51.074;-1.790;2023-07-13T10:33:26;4.28;;;0.73;;
78406;SDS011;67692;51.074;-1.790;2023-07-13T10:35:56;3.70;;;0.88;;
78406;SDS011;67692;51.074;-1.790;2023-07-13T10:38:30;1.85;;;0.93;;
78406;SDS011;67692;51.074;-1.790;2023-07-13T10:40:58;2.58;;;1.20;;
78406;SDS011;67692;51.074;-1.790;2023-07-13T10:43:31;3.88;;;0.90;;
78406;SDS011;67692;51.074;-1.790;2023-07-13T10:46:03;2.83;;;1.02;;
78406;SDS011;67692;51.074;-1.790;2023-07-13T10:51:03;2.03;;;0.98;;
78406;SDS011;67692;51.074;-1.790;2023-07-13T10:53:33;2.17;;;0.68;;
78406;SDS011;67692;51.074;-1.790;2023-07-13T10:56:02;4.30;;;1.10;;
78406;SDS011;67692;51.074;-1.790;2023-07-13T10:58:34;2.70;;;0.93;;
78406;SDS011;67692;51.074;-1.790;2023-07-13T11:01:11;3.42;;;1.02;;
78406;SDS011;67692;51.074;-1.790;2023-07-13T11:03:46;6.07;;;1.20;;
78406;SDS011;67692;51.074;-1.790;2023-07-13T11:09:07;2.40;;;0.90;;
78406;SDS011;67692;51.074;-1.790;2023-07-13T11:11:44;2.85;;;1.10;;
78406;SDS011;67692;51.074;-1.790;2023-07-13T11:14:28;4.53;;;1.30;;
78406;SDS011;67692;51.074;-1.790;2023-07-13T11:16:57;3.03;;;1.30;;
78406;SDS011;67692;51.074;-1.790;2023-07-13T11:22:15;3.00;;;1.13;;
78406;SDS011;67692;51.074;-1.790;2023-07-13T11:24:48;4.32;;;1.17;;
78406;SDS011;67692;51.074;-1.790;2023-07-13T11:27:21;11.48;;;1.45;;
78406;SDS011;67692;51.074;-1.790;2023-07-13T11:30:06;3.40;;;1.30;;
78406;SDS011;67692;51.074;-1.790;2023-07-13T11:32:35;5.78;;;1.77;;
78406;SDS011;67692;51.074;-1.790;2023-07-13T11:35:02;3.33;;;1.25;;
78406;SDS011;67692;51.074;-1.790;2023-07-13T11:37:30;5.50;;;1.20;;
78406;SDS011;67692;51.074;-1.790;2023-07-13T11:39:58;9.02;;;2.33;;
78406;SDS011;67692;51.074;-1.790;2023-07-13T11:42:25;5.82;;;2.13;;
78406;SDS011;67692;51.074;-1.790;2023-07-13T11:44:52;12.70;;;2.22;;
78406;SDS011;67692;51.074;-1.790;2023-07-13T11:47:22;7.68;;;1.83;;
78406;SDS011;67692;51.074;-1.790;2023-07-13T11:49:52;4.13;;;1.63;;
78406;SDS011;67692;51.074;-1.790;2023-07-13T11:52:22;7.07;;;1.50;;
78406;SDS011;67692;51.074;-1.790;2023-07-13T11:54:55;6.00;;;1.70;;
78406;SDS011;67692;51.074;-1.790;2023-07-13T11:57:24;5.40;;;1.83;;
78406;SDS011;67692;51.074;-1.790;2023-07-13T11:59:55;7.03;;;1.80;;
78406;SDS011;67692;51.074;-1.790;2023-07-13T12:02:25;4.88;;;1.85;;
78406;SDS011;67692;51.074;-1.790;2023-07-13T12:04:55;4.70;;;1.75;;
78406;SDS011;67692;51.074;-1.790;2023-07-13T12:07:22;5.25;;;2.05;;
78406;SDS011;67692;51.074;-1.790;2023-07-13T12:09:48;7.10;;;2.10;;
78406;SDS011;67692;51.074;-1.790;2023-07-13T12:12:18;5.40;;;1.92;;
78406;SDS011;67692;51.074;-1.790;2023-07-13T12:14:50;7.95;;;2.08;;
78406;SDS011;67692;51.074;-1.790;2023-07-13T12:17:18;5.72;;;1.95;;
78406;SDS011;67692;51.074;-1.790;2023-07-13T12:19:47;5.78;;;1.73;;
78406;SDS011;67692;51.074;-1.790;2023-07-13T12:22:14;6.45;;;1.80;;
78406;SDS011;67692;51.074;-1.790;2023-07-13T12:24:43;6.55;;;1.90;;
78406;SDS011;67692;51.074;-1.790;2023-07-13T12:27:18;4.50;;;1.63;;
78406;SDS011;67692;51.074;-1.790;2023-07-13T12:29:49;8.10;;;1.85;;
78406;SDS011;67692;51.074;-1.790;2023-07-13T12:32:18;7.32;;;1.48;;
78406;SDS011;67692;51.074;-1.790;2023-07-13T12:34:52;5.93;;;1.75;;
78406;SDS011;67692;51.074;-1.790;2023-07-13T12:37:21;7.53;;;1.75;;
78406;SDS011;67692;51.074;-1.790;2023-07-13T12:39:48;7.18;;;1.95;;
78406;SDS011;67692;51.074;-1.790;2023-07-13T12:42:21;4.90;;;1.90;;
78406;SDS011;67692;51.074;-1.790;2023-07-13T12:44:52;10.07;;;1.90;;
78406;SDS011;67692;51.074;-1.790;2023-07-13T12:47:23;10.65;;;2.15;;
78406;SDS011;67692;51.074;-1.790;2023-07-13T12:49:53;4.32;;;1.83;;
78406;SDS011;67692;51.074;-1.790;2023-07-13T12:52:22;6.60;;;1.88;;
78406;SDS011;67692;51.074;-1.790;2023-07-13T12:54:55;7.88;;;2.45;;
78406;SDS011;67692;51.074;-1.790;2023-07-13T12:57:25;8.15;;;2.10;;
78406;SDS011;67692;51.074;-1.790;2023-07-13T12:59:52;9.45;;;2.50;;
78406;SDS011;67692;51.074;-1.790;2023-07-13T13:02:21;6.50;;;1.90;;
78406;SDS011;67692;51.074;-1.790;2023-07-13T13:04:54;7.75;;;1.95;;
78406;SDS011;67692;51.074;-1.790;2023-07-13T13:07:21;4.43;;;1.80;;
78406;SDS011;67692;51.074;-1.790;2023-07-13T13:09:48;6.43;;;2.05;;
78406;SDS011;67692;51.074;-1.790;2023-07-13T13:12:14;7.47;;;1.98;;
78406;SDS011;67692;51.074;-1.790;2023-07-13T13:14:43;4.65;;;1.98;;
78406;SDS011;67692;51.074;-1.790;2023-07-13T13:17:15;4.43;;;1.65;;
78406;SDS011;67692;51.074;-1.790;2023-07-13T13:19:45;6.82;;;2.00;;
78406;SDS011;67692;51.074;-1.790;2023-07-13T13:22:12;6.22;;;2.00;;
78406;SDS011;67692;51.074;-1.790;2023-07-13T13:24:39;6.57;;;2.15;;
78406;SDS011;67692;51.074;-1.790;2023-07-13T13:27:08;6.60;;;2.00;;
78406;SDS011;67692;51.074;-1.790;2023-07-13T13:29:40;6.32;;;2.10;;
78406;SDS011;67692;51.074;-1.790;2023-07-13T13:32:08;8.10;;;2.40;;
78406;SDS011;67692;51.074;-1.790;2023-07-13T13:34:37;6.65;;;2.33;;
78406;SDS011;67692;51.074;-1.790;2023-07-13T13:37:04;6.57;;;1.90;;
78406;SDS011;67692;51.074;-1.790;2023-07-13T13:39:36;4.63;;;1.50;;
78406;SDS011;67692;51.074;-1.790;2023-07-13T13:42:04;5.03;;;1.60;;
78406;SDS011;67692;51.074;-1.790;2023-07-13T13:44:31;5.85;;;1.67;;
78406;SDS011;67692;51.074;-1.790;2023-07-13T13:46:58;6.82;;;1.63;;
78406;SDS011;67692;51.074;-1.790;2023-07-13T13:49:26;5.57;;;1.50;;
78406;SDS011;67692;51.074;-1.790;2023-07-13T13:51:54;4.85;;;1.42;;
78406;SDS011;67692;51.074;-1.790;2023-07-13T13:54:21;5.35;;;1.45;;
78406;SDS011;67692;51.074;-1.790;2023-07-13T13:56:49;3.30;;;1.20;;
78406;SDS011;67692;51.074;-1.790;2023-07-13T13:59:18;2.40;;;1.00;;
78406;SDS011;67692;51.074;-1.790;2023-07-13T14:01:45;3.92;;;1.20;;
78406;SDS011;67692;51.074;-1.790;2023-07-13T14:04:14;4.25;;;1.20;;
78406;SDS011;67692;51.074;-1.790;2023-07-13T14:06:44;3.88;;;1.17;;
78406;SDS011;67692;51.074;-1.790;2023-07-13T14:09:11;4.82;;;1.30;;
78406;SDS011;67692;51.074;-1.790;2023-07-13T14:11:40;3.85;;;1.10;;
78406;SDS011;67692;51.074;-1.790;2023-07-13T14:14:09;4.28;;;1.75;;
78406;SDS011;67692;51.074;-1.790;2023-07-13T14:16:41;1.98;;;0.93;;
78406;SDS011;67692;51.074;-1.790;2023-07-13T14:19:09;3.08;;;1.00;;
78406;SDS011;67692;51.074;-1.790;2023-07-13T14:21:39;5.45;;;1.20;;
78406;SDS011;67692;51.074;-1.790;2023-07-13T14:24:07;3.28;;;0.98;;
78406;SDS011;67692;51.074;-1.790;2023-07-13T14:26:35;3.45;;;1.10;;
78406;SDS011;67692;51.074;-1.790;2023-07-13T14:29:04;5.40;;;1.30;;
78406;SDS011;67692;51.074;-1.790;2023-07-13T14:31:37;6.43;;;1.50;;
78406;SDS011;67692;51.074;-1.790;2023-07-13T14:34:04;5.45;;;1.58;;
78406;SDS011;67692;51.074;-1.790;2023-07-13T14:36:32;3.28;;;1.20;;
78406;SDS011;67692;51.074;-1.790;2023-07-13T14:39:01;4.38;;;1.00;;
78406;SDS011;67692;51.074;-1.790;2023-07-13T14:41:37;4.75;;;1.10;;
78406;SDS011;67692;51.074;-1.790;2023-07-13T14:44:07;5.68;;;1.38;;
78406;SDS011;67692;51.074;-1.790;2023-07-13T14:46:37;2.78;;;0.80;;
78406;SDS011;67692;51.074;-1.790;2023-07-13T14:49:04;3.63;;;0.90;;
78406;SDS011;67692;51.074;-1.790;2023-07-13T14:51:34;4.38;;;0.95;;